sensor_id;sensor_type;location;lat;lon;timestamp;pressure;altitude;pressure_sealevel;temperature;humidity
62126;BME280;48112;53.282;6.150;2023-02-18T00:00:48;102161.97;;;16.42;55.42
62126;BME280;48112;53.282;6.150;2023-02-18T00:01:49;102166.28;;;16.43;55.28
62126;BME280;48112;53.282;6.150;2023-02-18T00:02:52;102166.28;;;16.43;55.56
62126;BME280;48112;53.282;6.150;2023-02-18T00:03:56;102160.84;;;16.43;55.66
62126;BME280;48112;53.282;6.150;2023-02-18T00:04:59;102160.84;;;16.43;55.42
62126;BME280;48112;53.282;6.150;2023-02-18T00:06:08;102154.59;;;16.43;55.44
62126;BME280;48112;53.282;6.150;2023-02-18T00:07:11;102155.38;;;16.43;55.42
62126;BME280;48112;53.282;6.150;2023-02-18T00:08:13;102151.09;;;16.42;55.57
62126;BME280;48112;53.282;6.150;2023-02-18T00:09:15;102151.09;;;16.42;55.42
62126;BME280;48112;53.282;6.150;2023-02-18T00:10:18;102145.63;;;16.42;55.44
62126;BME280;48112;53.282;6.150;2023-02-18T00:11:21;102140.19;;;16.42;55.66
62126;BME280;48112;53.282;6.150;2023-02-18T00:12:24;102140.19;;;16.42;55.36
62126;BME280;48112;53.282;6.150;2023-02-18T00:13:26;102140.19;;;16.42;55.66
62126;BME280;48112;53.282;6.150;2023-02-18T00:14:28;102133.56;;;16.43;55.46
62126;BME280;48112;53.282;6.150;2023-02-18T00:15:32;102133.56;;;16.43;55.73
62126;BME280;48112;53.282;6.150;2023-02-18T00:16:35;102119.50;;;16.41;55.39
62126;BME280;48112;53.282;6.150;2023-02-18T00:17:37;102118.38;;;16.42;55.58
62126;BME280;48112;53.282;6.150;2023-02-18T00:18:39;102115.66;;;16.42;55.71
62126;BME280;48112;53.282;6.150;2023-02-18T00:19:42;102121.09;;;16.42;55.42
62126;BME280;48112;53.282;6.150;2023-02-18T00:20:43;102119.50;;;16.41;55.61
62126;BME280;48112;53.282;6.150;2023-02-18T00:21:46;102132.78;;;16.43;55.63
62126;BME280;48112;53.282;6.150;2023-02-18T00:22:48;102130.41;;;16.41;55.67
62126;BME280;48112;53.282;6.150;2023-02-18T00:23:50;102119.50;;;16.41;55.58
62126;BME280;48112;53.282;6.150;2023-02-18T00:24:52;102119.50;;;16.41;55.55
62126;BME280;48112;53.282;6.150;2023-02-18T00:25:58;102119.50;;;16.41;55.69
62126;BME280;48112;53.282;6.150;2023-02-18T00:27:01;102114.84;;;16.42;55.45
62126;BME280;48112;53.282;6.150;2023-02-18T00:28:04;102114.84;;;16.42;55.36
62126;BME280;48112;53.282;6.150;2023-02-18T00:29:06;102108.59;;;16.41;55.69
62126;BME280;48112;53.282;6.150;2023-02-18T00:30:09;102107.81;;;16.41;55.62
62126;BME280;48112;53.282;6.150;2023-02-18T00:31:11;102114.03;;;16.41;55.68
62126;BME280;48112;53.282;6.150;2023-02-18T00:32:15;102108.59;;;16.41;55.60
62126;BME280;48112;53.282;6.150;2023-02-18T00:33:17;102108.59;;;16.41;55.45
62126;BME280;48112;53.282;6.150;2023-02-18T00:34:19;102097.69;;;16.41;55.62
62126;BME280;48112;53.282;6.150;2023-02-18T00:35:21;102094.97;;;16.41;55.35
62126;BME280;48112;53.282;6.150;2023-02-18T00:36:23;102092.22;;;16.41;55.57
62126;BME280;48112;53.282;6.150;2023-02-18T00:37:26;102096.13;;;16.40;55.47
62126;BME280;48112;53.282;6.150;2023-02-18T00:38:28;102088.75;;;16.41;55.45
62126;BME280;48112;53.282;6.150;2023-02-18T00:39:31;102091.47;;;16.41;55.52
62126;BME280;48112;53.282;6.150;2023-02-18T00:40:35;102086.00;;;16.41;55.37
62126;BME280;48112;53.282;6.150;2023-02-18T00:41:38;102091.47;;;16.41;55.68
62126;BME280;48112;53.282;6.150;2023-02-18T00:42:41;102089.50;;;16.41;55.65
62126;BME280;48112;53.282;6.150;2023-02-18T00:43:44;102080.56;;;16.41;55.64
62126;BME280;48112;53.282;6.150;2023-02-18T00:44:46;102080.88;;;16.39;55.48
62126;BME280;48112;53.282;6.150;2023-02-18T00:45:49;102075.88;;;16.41;55.46
62126;BME280;48112;53.282;6.150;2023-02-18T00:46:50;102078.94;;;16.40;55.69
62126;BME280;48112;53.282;6.150;2023-02-18T00:47:53;102080.56;;;16.41;55.70
62126;BME280;48112;53.282;6.150;2023-02-18T00:48:55;102075.88;;;16.41;55.60
62126;BME280;48112;53.282;6.150;2023-02-18T00:49:58;102072.69;;;16.39;55.11
62126;BME280;48112;53.282;6.150;2023-02-18T00:51:00;102069.97;;;16.39;55.70
62126;BME280;48112;53.282;6.150;2023-02-18T00:52:03;102075.44;;;16.39;55.56
62126;BME280;48112;53.282;6.150;2023-02-18T00:53:04;102067.25;;;16.39;55.41
62126;BME280;48112;53.282;6.150;2023-02-18T00:54:07;102075.09;;;16.41;55.40
62126;BME280;48112;53.282;6.150;2023-02-18T00:55:09;102064.53;;;16.39;55.69
62126;BME280;48112;53.282;6.150;2023-02-18T00:56:11;102072.69;;;16.39;55.68
62126;BME280;48112;53.282;6.150;2023-02-18T00:57:15;102075.44;;;16.39;55.40
62126;BME280;48112;53.282;6.150;2023-02-18T00:58:20;102078.94;;;16.40;55.48
62126;BME280;48112;53.282;6.150;2023-02-18T00:59:22;102072.69;;;16.39;55.43
62126;BME280;48112;53.282;6.150;2023-02-18T01:00:24;102075.44;;;16.39;55.50
62126;BME280;48112;53.282;6.150;2023-02-18T01:01:26;102072.69;;;16.39;55.44
62126;BME280;48112;53.282;6.150;2023-02-18T01:02:29;102059.06;;;16.39;55.58
62126;BME280;48112;53.282;6.150;2023-02-18T01:03:32;102059.88;;;16.40;55.58
62126;BME280;48112;53.282;6.150;2023-02-18T01:04:34;102064.53;;;16.39;55.51
62126;BME280;48112;53.282;6.150;2023-02-18T01:05:36;102058.75;;;16.41;55.39
62126;BME280;48112;53.282;6.150;2023-02-18T01:06:40;102074.31;;;16.40;55.38
62126;BME280;48112;53.282;6.150;2023-02-18T01:07:41;102072.69;;;16.39;55.63
62126;BME280;48112;53.282;6.150;2023-02-18T01:08:44;102078.16;;;16.39;55.69
62126;BME280;48112;53.282;6.150;2023-02-18T01:09:45;102078.16;;;16.39;55.72
62126;BME280;48112;53.282;6.150;2023-02-18T01:10:51;102079.75;;;16.40;55.58
62126;BME280;48112;53.282;6.150;2023-02-18T01:11:53;102065.69;;;16.38;55.60
62126;BME280;48112;53.282;6.150;2023-02-18T01:12:56;102065.69;;;16.38;55.45
62126;BME280;48112;53.282;6.150;2023-02-18T01:13:59;102072.69;;;16.39;55.40
62126;BME280;48112;53.282;6.150;2023-02-18T01:15:03;102072.69;;;16.39;55.40
62126;BME280;48112;53.282;6.150;2023-02-18T01:16:05;102065.69;;;16.38;55.65
62126;BME280;48112;53.282;6.150;2023-02-18T01:17:09;102065.69;;;16.38;55.44
62126;BME280;48112;53.282;6.150;2023-02-18T01:18:13;102066.47;;;16.39;55.41
62126;BME280;48112;53.282;6.150;2023-02-18T01:19:16;102074.66;;;16.39;55.59
62126;BME280;48112;53.282;6.150;2023-02-18T01:20:18;102076.56;;;16.38;55.29
62126;BME280;48112;53.282;6.150;2023-02-18T01:21:20;102075.44;;;16.39;55.32
62126;BME280;48112;53.282;6.150;2023-02-18T01:22:23;102077.38;;;16.39;55.42
62126;BME280;48112;53.282;6.150;2023-02-18T01:23:25;102075.44;;;16.39;55.39
62126;BME280;48112;53.282;6.150;2023-02-18T01:24:28;102076.56;;;16.38;55.52
62126;BME280;48112;53.282;6.150;2023-02-18T01:25:30;102076.56;;;16.38;55.44
62126;BME280;48112;53.282;6.150;2023-02-18T01:26:34;102077.38;;;16.39;55.53
62126;BME280;48112;53.282;6.150;2023-02-18T01:27:36;102076.56;;;16.38;55.62
62126;BME280;48112;53.282;6.150;2023-02-18T01:28:38;102069.22;;;16.39;55.66
62126;BME280;48112;53.282;6.150;2023-02-18T01:29:42;102057.50;;;16.38;55.68
62126;BME280;48112;53.282;6.150;2023-02-18T01:30:45;102062.94;;;16.38;55.51
62126;BME280;48112;53.282;6.150;2023-02-18T01:31:46;102049.31;;;16.38;55.71
62126;BME280;48112;53.282;6.150;2023-02-18T01:32:49;102054.78;;;16.38;55.74
62126;BME280;48112;53.282;6.150;2023-02-18T01:33:51;102049.31;;;16.38;55.44
62126;BME280;48112;53.282;6.150;2023-02-18T01:34:54;102050.13;;;16.39;55.34
62126;BME280;48112;53.282;6.150;2023-02-18T01:35:55;102042.72;;;16.39;55.47
62126;BME280;48112;53.282;6.150;2023-02-18T01:36:58;102036.50;;;16.39;55.67
62126;BME280;48112;53.282;6.150;2023-02-18T01:38:00;102038.41;;;16.38;55.40
62126;BME280;48112;53.282;6.150;2023-02-18T01:39:03;102032.97;;;16.38;55.39
62126;BME280;48112;53.282;6.150;2023-02-18T01:40:06;102039.22;;;16.39;55.39
62126;BME280;48112;53.282;6.150;2023-02-18T01:41:09;102041.94;;;16.39;55.63
62126;BME280;48112;53.282;6.150;2023-02-18T01:42:15;102038.41;;;16.38;55.44
62126;BME280;48112;53.282;6.150;2023-02-18T01:43:18;102042.31;;;16.37;55.55
62126;BME280;48112;53.282;6.150;2023-02-18T01:44:22;102043.88;;;16.38;55.23
62126;BME280;48112;53.282;6.150;2023-02-18T01:46:47;102042.31;;;16.37;55.72
62126;BME280;48112;53.282;6.150;2023-02-18T01:47:50;102034.88;;;16.38;55.49
62126;BME280;48112;53.282;6.150;2023-02-18T01:48:52;102030.25;;;16.38;55.72
62126;BME280;48112;53.282;6.150;2023-02-18T01:49:56;102027.50;;;16.38;55.65
62126;BME280;48112;53.282;6.150;2023-02-18T01:50:59;102024.00;;;16.38;55.85
62126;BME280;48112;53.282;6.150;2023-02-18T01:52:04;102018.53;;;16.38;55.48
62126;BME280;48112;53.282;6.150;2023-02-18T01:53:06;102013.88;;;16.38;55.45
62126;BME280;48112;53.282;6.150;2023-02-18T01:54:10;102010.34;;;16.38;55.67
62126;BME280;48112;53.282;6.150;2023-02-18T01:55:14;102006.50;;;16.39;55.47
62126;BME280;48112;53.282;6.150;2023-02-18T01:56:19;101998.34;;;16.39;55.36
62126;BME280;48112;53.282;6.150;2023-02-18T01:57:24;101987.78;;;16.37;55.67
62126;BME280;48112;53.282;6.150;2023-02-18T01:58:28;101992.09;;;16.38;55.49
62126;BME280;48112;53.282;6.150;2023-02-18T01:59:31;101983.09;;;16.38;55.33
62126;BME280;48112;53.282;6.150;2023-02-18T02:00:34;101973.81;;;16.39;55.46
62126;BME280;48112;53.282;6.150;2023-02-18T02:01:37;101968.69;;;16.37;55.43
62126;BME280;48112;53.282;6.150;2023-02-18T02:02:43;101960.53;;;16.37;55.61
62126;BME280;48112;53.282;6.150;2023-02-18T02:03:46;101956.66;;;16.38;55.65
62126;BME280;48112;53.282;6.150;2023-02-18T02:04:48;101956.66;;;16.38;55.68
62126;BME280;48112;53.282;6.150;2023-02-18T02:05:51;101964.81;;;16.38;55.35
62126;BME280;48112;53.282;6.150;2023-02-18T02:06:53;101964.81;;;16.38;55.58
62126;BME280;48112;53.282;6.150;2023-02-18T02:07:56;101966.75;;;16.38;55.66
62126;BME280;48112;53.282;6.150;2023-02-18T02:09:00;101961.28;;;16.38;55.44
62126;BME280;48112;53.282;6.150;2023-02-18T02:10:04;101967.56;;;16.38;55.37
62126;BME280;48112;53.282;6.150;2023-02-18T02:11:11;101974.16;;;16.37;55.48
62126;BME280;48112;53.282;6.150;2023-02-18T02:12:22;101974.16;;;16.37;55.60
62126;BME280;48112;53.282;6.150;2023-02-18T02:13:27;101970.28;;;16.38;55.48
62126;BME280;48112;53.282;6.150;2023-02-18T02:14:38;101966.75;;;16.38;55.63
62126;BME280;48112;53.282;6.150;2023-02-18T02:15:43;101953.91;;;16.38;55.73
62126;BME280;48112;53.282;6.150;2023-02-18T02:16:49;101956.66;;;16.38;55.43
62126;BME280;48112;53.282;6.150;2023-02-18T02:17:59;101956.66;;;16.38;55.64
62126;BME280;48112;53.282;6.150;2023-02-18T02:19:11;101964.81;;;16.38;55.60
62126;BME280;48112;53.282;6.150;2023-02-18T02:20:29;101967.56;;;16.38;55.74
62126;BME280;48112;53.282;6.150;2023-02-18T02:21:42;101965.97;;;16.37;55.60
62126;BME280;48112;53.282;6.150;2023-02-18T02:22:59;101966.75;;;16.38;55.63
62126;BME280;48112;53.282;6.150;2023-02-18T02:25:28;101955.06;;;16.37;55.40
62126;BME280;48112;53.282;6.150;2023-02-18T02:28:07;101940.28;;;16.38;55.42
62126;BME280;48112;53.282;6.150;2023-02-18T02:31:02;101934.84;;;16.38;55.70
62126;BME280;48112;53.282;6.150;2023-02-18T02:32:22;101930.19;;;16.39;55.46
62126;BME280;48112;53.282;6.150;2023-02-18T02:33:36;101934.03;;;16.38;55.39
62126;BME280;48112;53.282;6.150;2023-02-18T02:34:47;101923.13;;;16.38;55.66
62126;BME280;48112;53.282;6.150;2023-02-18T02:35:53;101926.66;;;16.38;55.54
62126;BME280;48112;53.282;6.150;2023-02-18T02:36:59;101920.06;;;16.39;55.57
62126;BME280;48112;53.282;6.150;2023-02-18T02:38:04;101913.03;;;16.38;55.58
62126;BME280;48112;53.282;6.150;2023-02-18T02:39:10;101906.78;;;16.38;55.64
62126;BME280;48112;53.282;6.150;2023-02-18T02:40:18;101911.47;;;16.37;55.39
62126;BME280;48112;53.282;6.150;2023-02-18T02:41:27;101900.56;;;16.37;55.41
62126;BME280;48112;53.282;6.150;2023-02-18T02:42:35;101901.34;;;16.38;55.34
62126;BME280;48112;53.282;6.150;2023-02-18T02:43:43;101906.78;;;16.38;55.43
62126;BME280;48112;53.282;6.150;2023-02-18T02:44:51;101903.28;;;16.37;55.59
62126;BME280;48112;53.282;6.150;2023-02-18T02:45:57;101888.84;;;16.37;55.54
62126;BME280;48112;53.282;6.150;2023-02-18T02:47:01;101895.88;;;16.38;55.38
62126;BME280;48112;53.282;6.150;2023-02-18T02:48:11;101897.84;;;16.37;55.32
62126;BME280;48112;53.282;6.150;2023-02-18T02:49:19;101889.66;;;16.37;55.40
62126;BME280;48112;53.282;6.150;2023-02-18T02:50:29;101894.31;;;16.37;55.39
62126;BME280;48112;53.282;6.150;2023-02-18T02:51:37;101893.97;;;16.38;55.33
62126;BME280;48112;53.282;6.150;2023-02-18T02:52:43;101889.66;;;16.37;55.36
62126;BME280;48112;53.282;6.150;2023-02-18T02:53:46;101884.22;;;16.37;55.61
62126;BME280;48112;53.282;6.150;2023-02-18T02:54:49;101887.69;;;16.38;55.46
62126;BME280;48112;53.282;6.150;2023-02-18T02:55:52;101880.31;;;16.38;55.58
62126;BME280;48112;53.282;6.150;2023-02-18T02:57:05;101874.88;;;16.38;55.57
62126;BME280;48112;53.282;6.150;2023-02-18T02:58:09;101884.22;;;16.37;55.50
62126;BME280;48112;53.282;6.150;2023-02-18T02:59:16;101873.31;;;16.37;55.56
62126;BME280;48112;53.282;6.150;2023-02-18T03:00:20;101873.31;;;16.37;55.38
62126;BME280;48112;53.282;6.150;2023-02-18T03:01:28;101877.59;;;16.38;55.45
62126;BME280;48112;53.282;6.150;2023-02-18T03:02:36;101862.41;;;16.37;55.42
62126;BME280;48112;53.282;6.150;2023-02-18T03:03:50;101855.00;;;16.38;55.62
62126;BME280;48112;53.282;6.150;2023-02-18T03:04:58;101848.78;;;16.37;55.39
62126;BME280;48112;53.282;6.150;2023-02-18T03:06:10;101849.53;;;16.38;55.43
62126;BME280;48112;53.282;6.150;2023-02-18T03:07:33;101843.31;;;16.37;55.36
62126;BME280;48112;53.282;6.150;2023-02-18T03:08:40;101840.59;;;16.37;55.52
62126;BME280;48112;53.282;6.150;2023-02-18T03:09:48;101846.06;;;16.37;55.52
62126;BME280;48112;53.282;6.150;2023-02-18T03:11:00;101839.81;;;16.37;55.42
62126;BME280;48112;53.282;6.150;2023-02-18T03:12:05;101833.53;;;16.36;55.71
62126;BME280;48112;53.282;6.150;2023-02-18T03:13:12;101837.88;;;16.37;55.61
62126;BME280;48112;53.282;6.150;2023-02-18T03:14:19;101829.69;;;16.37;55.49
62126;BME280;48112;53.282;6.150;2023-02-18T03:15:26;101823.44;;;16.37;55.60
62126;BME280;48112;53.282;6.150;2023-02-18T03:16:34;101840.59;;;16.37;55.65
62126;BME280;48112;53.282;6.150;2023-02-18T03:17:39;101835.91;;;16.38;55.44
62126;BME280;48112;53.282;6.150;2023-02-18T03:18:43;101837.88;;;16.37;55.61
62126;BME280;48112;53.282;6.150;2023-02-18T03:19:48;101845.25;;;16.37;55.46
62126;BME280;48112;53.282;6.150;2023-02-18T03:20:53;101851.50;;;16.37;55.51
62126;BME280;48112;53.282;6.150;2023-02-18T03:22:00;101851.50;;;16.37;55.41
62126;BME280;48112;53.282;6.150;2023-02-18T03:23:05;101846.06;;;16.37;55.41
62126;BME280;48112;53.282;6.150;2023-02-18T03:24:11;101854.22;;;16.37;55.67
62126;BME280;48112;53.282;6.150;2023-02-18T03:25:16;101850.69;;;16.37;55.60
62126;BME280;48112;53.282;6.150;2023-02-18T03:26:19;101856.94;;;16.37;55.35
62126;BME280;48112;53.282;6.150;2023-02-18T03:27:22;101849.91;;;16.36;55.43
62126;BME280;48112;53.282;6.150;2023-02-18T03:28:27;101852.63;;;16.36;55.55
62126;BME280;48112;53.282;6.150;2023-02-18T03:29:32;101850.69;;;16.37;55.57
62126;BME280;48112;53.282;6.150;2023-02-18T03:30:38;101845.25;;;16.37;55.64
62126;BME280;48112;53.282;6.150;2023-02-18T03:31:44;101840.59;;;16.37;55.65
62126;BME280;48112;53.282;6.150;2023-02-18T03:32:48;101849.91;;;16.36;55.35
62126;BME280;48112;53.282;6.150;2023-02-18T03:33:54;101835.16;;;16.37;55.53
62126;BME280;48112;53.282;6.150;2023-02-18T03:34:59;101834.34;;;16.37;55.67
62126;BME280;48112;53.282;6.150;2023-02-18T03:36:04;101844.44;;;16.36;55.63
62126;BME280;48112;53.282;6.150;2023-02-18T03:37:07;101829.69;;;16.37;55.44
62126;BME280;48112;53.282;6.150;2023-02-18T03:38:12;101832.41;;;16.37;55.34
62126;BME280;48112;53.282;6.150;2023-02-18T03:39:16;101826.97;;;16.37;55.40
62126;BME280;48112;53.282;6.150;2023-02-18T03:40:20;101831.63;;;16.37;55.37
62126;BME280;48112;53.282;6.150;2023-02-18T03:41:22;101828.91;;;16.37;55.39
62126;BME280;48112;53.282;6.150;2023-02-18T03:42:25;101834.34;;;16.37;55.44
62126;BME280;48112;53.282;6.150;2023-02-18T03:43:28;101828.09;;;16.36;55.45
62126;BME280;48112;53.282;6.150;2023-02-18T03:44:30;101828.09;;;16.36;55.37
62126;BME280;48112;53.282;6.150;2023-02-18T03:45:32;101818.00;;;16.37;55.42
62126;BME280;48112;53.282;6.150;2023-02-18T03:46:35;101818.78;;;16.37;55.33
62126;BME280;48112;53.282;6.150;2023-02-18T03:47:37;101814.47;;;16.36;55.25
62126;BME280;48112;53.282;6.150;2023-02-18T03:48:41;101800.84;;;16.36;55.71
62126;BME280;48112;53.282;6.150;2023-02-18T03:49:42;101801.66;;;16.37;55.73
62126;BME280;48112;53.282;6.150;2023-02-18T03:50:45;101798.13;;;16.36;55.45
62126;BME280;48112;53.282;6.150;2023-02-18T03:51:47;101797.00;;;16.37;55.52
62126;BME280;48112;53.282;6.150;2023-02-18T03:52:51;101809.81;;;16.37;55.87
62126;BME280;48112;53.282;6.150;2023-02-18T03:53:54;101799.72;;;16.37;55.46
62126;BME280;48112;53.282;6.150;2023-02-18T03:54:56;101796.19;;;16.37;55.33
62126;BME280;48112;53.282;6.150;2023-02-18T03:55:58;101797.00;;;16.37;55.45
62126;BME280;48112;53.282;6.150;2023-02-18T03:57:01;101806.28;;;16.36;55.61
62126;BME280;48112;53.282;6.150;2023-02-18T03:58:02;101802.81;;;16.36;55.59
62126;BME280;48112;53.282;6.150;2023-02-18T03:59:05;101799.28;;;16.35;55.33
62126;BME280;48112;53.282;6.150;2023-02-18T04:00:07;101800.84;;;16.36;55.58
62126;BME280;48112;53.282;6.150;2023-02-18T04:01:14;101789.16;;;16.36;55.61
62126;BME280;48112;53.282;6.150;2023-02-18T04:02:15;101801.66;;;16.37;55.55
62126;BME280;48112;53.282;6.150;2023-02-18T04:03:18;101803.56;;;16.36;55.42
62126;BME280;48112;53.282;6.150;2023-02-18T04:04:20;101807.88;;;16.37;55.63
62126;BME280;48112;53.282;6.150;2023-02-18T04:05:22;101802.00;;;16.35;55.35
62126;BME280;48112;53.282;6.150;2023-02-18T04:06:24;101798.91;;;16.37;55.52
62126;BME280;48112;53.282;6.150;2023-02-18T04:07:27;101796.19;;;16.37;55.36
62126;BME280;48112;53.282;6.150;2023-02-18T04:08:30;101795.38;;;16.36;55.35
62126;BME280;48112;53.282;6.150;2023-02-18T04:09:33;101793.81;;;16.35;55.44
62126;BME280;48112;53.282;6.150;2023-02-18T04:10:34;101795.38;;;16.36;55.39
62126;BME280;48112;53.282;6.150;2023-02-18T04:11:38;101792.66;;;16.36;55.46
62126;BME280;48112;53.282;6.150;2023-02-18T04:12:40;101789.16;;;16.36;55.59
62126;BME280;48112;53.282;6.150;2023-02-18T04:13:42;101795.38;;;16.36;55.71
62126;BME280;48112;53.282;6.150;2023-02-18T04:14:44;101800.84;;;16.36;55.65
62126;BME280;48112;53.282;6.150;2023-02-18T04:15:47;101791.91;;;16.36;55.69
62126;BME280;48112;53.282;6.150;2023-02-18T04:16:49;101796.53;;;16.35;55.47
62126;BME280;48112;53.282;6.150;2023-02-18T04:17:52;101789.16;;;16.36;55.36
62126;BME280;48112;53.282;6.150;2023-02-18T04:18:53;101789.94;;;16.36;55.45
62126;BME280;48112;53.282;6.150;2023-02-18T04:19:56;101784.50;;;16.36;55.68
62126;BME280;48112;53.282;6.150;2023-02-18T04:20:58;101779.03;;;16.36;55.52
62126;BME280;48112;53.282;6.150;2023-02-18T04:22:00;101773.59;;;16.36;55.54
62126;BME280;48112;53.282;6.150;2023-02-18T04:23:05;101768.94;;;16.37;55.58
62126;BME280;48112;53.282;6.150;2023-02-18T04:24:09;101774.75;;;16.35;55.64
62126;BME280;48112;53.282;6.150;2023-02-18T04:25:11;101766.56;;;16.35;55.54
62126;BME280;48112;53.282;6.150;2023-02-18T04:26:13;101768.13;;;16.36;55.53
62126;BME280;48112;53.282;6.150;2023-02-18T04:27:15;101761.13;;;16.35;55.25
62126;BME280;48112;53.282;6.150;2023-02-18T04:28:18;101752.94;;;16.35;55.36
62126;BME280;48112;53.282;6.150;2023-02-18T04:29:19;101748.28;;;16.36;55.34
62126;BME280;48112;53.282;6.150;2023-02-18T04:30:22;101749.84;;;16.37;55.53
62126;BME280;48112;53.282;6.150;2023-02-18T04:31:24;101736.59;;;16.35;55.40
62126;BME280;48112;53.282;6.150;2023-02-18T04:32:27;101740.88;;;16.36;55.57
62126;BME280;48112;53.282;6.150;2023-02-18T04:33:28;101745.56;;;16.36;55.56
62126;BME280;48112;53.282;6.150;2023-02-18T04:34:31;101733.00;;;16.31;55.68
62126;BME280;48112;53.282;6.150;2023-02-18T04:35:33;101740.13;;;16.36;55.37
62126;BME280;48112;53.282;6.150;2023-02-18T04:36:37;101732.69;;;16.36;55.39
62126;BME280;48112;53.282;6.150;2023-02-18T04:37:38;101732.69;;;16.36;55.74
62126;BME280;48112;53.282;6.150;2023-02-18T04:38:41;101728.41;;;16.35;55.38
62126;BME280;48112;53.282;6.150;2023-02-18T04:39:44;101724.53;;;16.36;55.58
62126;BME280;48112;53.282;6.150;2023-02-18T04:40:47;101724.88;;;16.35;55.65
62126;BME280;48112;53.282;6.150;2023-02-18T04:41:49;101718.31;;;16.36;55.62
62126;BME280;48112;53.282;6.150;2023-02-18T04:42:51;101721.03;;;16.36;55.61
62126;BME280;48112;53.282;6.150;2023-02-18T04:43:53;101710.13;;;16.36;55.57
62126;BME280;48112;53.282;6.150;2023-02-18T04:44:55;101712.84;;;16.36;55.61
62126;BME280;48112;53.282;6.150;2023-02-18T04:45:57;101709.34;;;16.35;55.46
62126;BME280;48112;53.282;6.150;2023-02-18T04:47:00;101709.34;;;16.35;55.50
62126;BME280;48112;53.282;6.150;2023-02-18T04:48:02;101695.72;;;16.35;55.40
62126;BME280;48112;53.282;6.150;2023-02-18T04:49:05;101689.09;;;16.36;55.61
62126;BME280;48112;53.282;6.150;2023-02-18T04:50:07;101691.06;;;16.36;55.38
62126;BME280;48112;53.282;6.150;2023-02-18T04:51:10;101687.53;;;16.35;55.35
62126;BME280;48112;53.282;6.150;2023-02-18T04:52:11;101686.38;;;16.36;55.36
62126;BME280;48112;53.282;6.150;2023-02-18T04:53:14;101677.44;;;16.36;55.58
62126;BME280;48112;53.282;6.150;2023-02-18T04:54:16;101666.00;;;16.30;55.62
62126;BME280;48112;53.282;6.150;2023-02-18T04:55:20;101664.56;;;16.36;55.39
62126;BME280;48112;53.282;6.150;2023-02-18T04:56:21;101643.94;;;16.35;55.45
62126;BME280;48112;53.282;6.150;2023-02-18T04:57:24;101645.84;;;16.35;55.47
62126;BME280;48112;53.282;6.150;2023-02-18T04:58:26;101639.63;;;16.34;55.37
62126;BME280;48112;53.282;6.150;2023-02-18T04:59:28;101641.19;;;16.35;55.48
62126;BME280;48112;53.282;6.150;2023-02-18T05:00:30;101626.41;;;16.36;55.40
62126;BME280;48112;53.282;6.150;2023-02-18T05:01:33;101616.66;;;16.35;55.42
62126;BME280;48112;53.282;6.150;2023-02-18T05:02:34;101613.94;;;16.35;55.63
62126;BME280;48112;53.282;6.150;2023-02-18T05:03:37;101613.94;;;16.35;55.45
62126;BME280;48112;53.282;6.150;2023-02-18T05:04:39;101606.56;;;16.36;55.66
62126;BME280;48112;53.282;6.150;2023-02-18T05:05:42;101608.50;;;16.35;55.45
62126;BME280;48112;53.282;6.150;2023-02-18T05:06:43;101604.59;;;16.36;55.42
62126;BME280;48112;53.282;6.150;2023-02-18T05:07:46;101601.13;;;16.36;55.36
62126;BME280;48112;53.282;6.150;2023-02-18T05:08:47;101581.25;;;16.35;55.47
62126;BME280;48112;53.282;6.150;2023-02-18T05:09:50;101581.25;;;16.35;55.44
62126;BME280;48112;53.282;6.150;2023-02-18T05:10:53;101596.03;;;16.34;55.70
62126;BME280;48112;53.282;6.150;2023-02-18T05:11:56;101596.03;;;16.34;55.47
62126;BME280;48112;53.282;6.150;2023-02-18T05:12:57;101601.47;;;16.34;55.73
62126;BME280;48112;53.282;6.150;2023-02-18T05:14:00;101595.22;;;16.34;55.74
62126;BME280;48112;53.282;6.150;2023-02-18T05:15:02;101591.34;;;16.35;55.69
62126;BME280;48112;53.282;6.150;2023-02-18T05:16:04;101598.75;;;16.34;55.65
62126;BME280;48112;53.282;6.150;2023-02-18T05:17:07;101587.84;;;16.34;55.44
62126;BME280;48112;53.282;6.150;2023-02-18T05:18:09;101596.78;;;16.35;55.45
62126;BME280;48112;53.282;6.150;2023-02-18T05:19:12;101596.03;;;16.34;55.65
62126;BME280;48112;53.282;6.150;2023-02-18T05:20:15;101579.69;;;16.34;55.64
62126;BME280;48112;53.282;6.150;2023-02-18T05:21:16;101576.94;;;16.34;55.60
62126;BME280;48112;53.282;6.150;2023-02-18T05:22:19;101575.00;;;16.35;55.48
62126;BME280;48112;53.282;6.150;2023-02-18T05:23:21;101575.78;;;16.35;55.51
62126;BME280;48112;53.282;6.150;2023-02-18T05:24:24;101571.50;;;16.34;55.59
62126;BME280;48112;53.282;6.150;2023-02-18T05:25:26;101564.09;;;16.35;55.52
62126;BME280;48112;53.282;6.150;2023-02-18T05:26:30;101569.53;;;16.35;55.49
62126;BME280;48112;53.282;6.150;2023-02-18T05:27:32;101573.06;;;16.35;55.76
62126;BME280;48112;53.282;6.150;2023-02-18T05:28:35;101566.06;;;16.34;55.56
62126;BME280;48112;53.282;6.150;2023-02-18T05:29:36;101568.78;;;16.34;55.47
62126;BME280;48112;53.282;6.150;2023-02-18T05:30:39;101557.88;;;16.34;55.43
62126;BME280;48112;53.282;6.150;2023-02-18T05:31:40;101552.44;;;16.34;55.44
62126;BME280;48112;53.282;6.150;2023-02-18T05:32:43;101546.97;;;16.34;55.62
62126;BME280;48112;53.282;6.150;2023-02-18T05:33:45;101546.97;;;16.34;55.73
62126;BME280;48112;53.282;6.150;2023-02-18T05:34:47;101557.88;;;16.34;55.53
62126;BME280;48112;53.282;6.150;2023-02-18T05:35:49;101551.63;;;16.34;55.50
62126;BME280;48112;53.282;6.150;2023-02-18T05:36:52;101557.88;;;16.34;55.60
62126;BME280;48112;53.282;6.150;2023-02-18T05:37:54;101563.31;;;16.34;55.69
62126;BME280;48112;53.282;6.150;2023-02-18T05:38:56;101563.31;;;16.34;55.79
62126;BME280;48112;53.282;6.150;2023-02-18T05:39:58;101557.88;;;16.34;55.69